CDT,Max TemperatureF,Mean TemperatureF,Min TemperatureF,Max Dew PointF,MeanDew PointF,Min DewpointF,Max Humidity, Mean Humidity, Min Humidity, Max Sea Level PressureIn, Mean Sea Level PressureIn, Min Sea Level PressureIn, Max VisibilityMiles, Mean VisibilityMiles, Min VisibilityMiles, Max Wind SpeedMPH, Mean Wind SpeedMPH, Max Gust SpeedMPH,PrecipitationIn, CloudCover, Events, WindDirDegrees
2013-5-1,72,53,34,49,36,31,85,65,44,30.43,30.05,29.44,10,9,5,44,28,53,T,7,Snow,359
2013-5-2,52,41,30,30,26,15,92,58,24,30.63,30.53,30.47,10,8,2,33,21,41,0.02,6,Snow,360
2013-5-3,68,48,28,21,18,15,63,39,14,30.48,30.19,29.99,10,10,10,21,9,26,0.00,0,,322
2013-5-4,69,51,32,24,18,7,56,33,10,30.12,30.04,29.98,10,10,10,26,13,33,0.00,0,,354
2013-5-5,67,51,34,25,20,16,59,37,15,30.21,30.12,30.04,10,10,10,16,6,21,0.00,0,,3
2013-5-6,78,58,38,46,34,21,67,43,19,30.06,30.00,29.92,10,10,10,30,9,38,T,3,,199
2013-5-7,85,66,46,46,40,24,82,48,13,29.94,29.83,29.69,10,10,10,25,11,31,T,2,,192
2013-5-8,88,69,50,45,40,25,77,44,10,29.88,29.73,29.63,10,10,5,36,11,46,0.00,0,,271
2013-5-9,77,63,48,52,44,42,86,59,31,30.07,29.93,29.84,10,10,7,21,12,29,0.11,4,Rain-Thunderstorm,349
2013-5-10,74,62,49,50,44,34,93,59,25,30.18,30.07,30.01,10,10,10,17,9,24,0.00,4,,10
2013-5-11,75,61,46,45,40,36,74,51,27,30.22,30.18,30.13,10,10,10,23,10,29,0.00,1,,17
2013-5-12,88,65,42,45,36,27,83,48,12,30.22,30.06,29.92,10,10,10,26,8,32,0.00,1,,217
2013-5-13,95,72,49,38,34,32,59,35,11,30.00,29.94,29.86,10,10,10,21,10,28,0.00,0,,216
2013-5-14,93,78,62,40,33,28,34,23,12,29.88,29.80,29.68,10,10,10,30,17,37,0.00,0,,204
2013-5-15,91,73,54,54,43,35,64,40,15,29.74,29.68,29.60,10,10,10,20,12,25,0.00,0,,175
2013-5-16,89,71,52,56,50,46,83,53,23,29.77,29.70,29.60,10,10,10,22,9,26,0.00,0,,128
2013-5-17,94,77,59,62,57,49,90,56,22,29.88,29.74,29.59,10,10,10,25,12,33,0.00,3,,145
2013-5-18,101,82,63,65,41,18,87,47,7,29.67,29.55,29.43,10,10,8,30,13,38,0.00,0,,217
2013-5-19,83,70,56,50,42,28,63,42,20,29.70,29.58,29.49,10,10,10,26,10,35,0.01,2,Rain-Thunderstorm,331
2013-5-20,80,65,49,45,42,39,74,50,25,29.82,29.74,29.65,10,10,8,28,10,35,0.00,2,Thunderstorm,353
2013-5-21,80,67,54,47,37,30,67,42,17,29.93,29.81,29.70,10,9,4,30,11,37,0.00,1,,346
2013-5-22,89,68,46,44,39,31,65,41,17,29.88,29.79,29.68,10,10,10,18,9,25,0.00,0,,117
2013-5-23,69,64,59,55,52,48,78,65,52,30.07,29.93,29.78,10,10,10,21,14,28,0.00,5,,75
2013-5-24,89,75,60,59,54,47,90,58,26,30.14,30.00,29.83,10,10,8,29,17,38,0.00,4,,154
2013-5-25,93,78,63,59,55,49,78,52,26,30.14,29.85,29.69,10,10,10,31,20,41,0.00,0,,193
2013-5-26,100,80,60,58,47,30,68,39,10,29.81,29.70,29.58,10,10,10,30,14,39,0.00,0,,180
2013-5-27,100,83,66,61,33,11,73,39,4,29.61,29.54,29.47,10,10,10,33,15,41,0.00,0,,224
2013-5-28,100,78,56,56,37,20,61,34,6,29.61,29.51,29.39,10,9,2,44,15,54,T,2,Rain-Thunderstorm,184
2013-5-29,92,78,63,63,52,29,78,45,12,29.56,29.38,29.26,10,9,2,39,21,51,0.02,1,,172
2013-5-30,94,76,58,55,36,20,73,40,7,29.61,29.49,29.37,10,10,10,30,14,39,T,1,Rain,290
2013-5-31,94,73,51,54,39,26,89,50,10,29.69,29.63,29.52,10,10,10,35,9,43,0.00,0,,339